createdAt,value
2017-08-26T00:00:41.867Z,0
2017-08-26T00:01:43.485Z,0
2017-08-26T00:02:45.105Z,0
2017-08-26T00:03:46.733Z,0
2017-08-26T00:04:48.349Z,0
2017-08-26T00:05:49.971Z,0
2017-08-26T00:06:51.587Z,0
2017-08-26T00:07:53.202Z,0
2017-08-26T00:08:54.828Z,0
2017-08-26T00:09:56.446Z,0
2017-08-26T00:10:58.063Z,0
2017-08-26T00:11:59.681Z,0
2017-08-26T00:13:01.304Z,0
2017-08-26T00:14:02.929Z,0
2017-08-26T00:15:04.542Z,0
2017-08-26T00:16:06.164Z,0
2017-08-26T00:17:07.781Z,0
2017-08-26T00:18:09.397Z,0
2017-08-26T00:19:11.014Z,0
2017-08-26T00:20:12.638Z,0
2017-08-26T00:21:14.265Z,0
2017-08-26T00:22:15.889Z,0
2017-08-26T00:23:17.503Z,0
2017-08-26T00:24:19.121Z,0
2017-08-26T00:25:20.746Z,0
2017-08-26T00:26:22.366Z,0
2017-08-26T00:27:23.983Z,0
2017-08-26T00:28:25.598Z,0
2017-08-26T00:29:27.226Z,0
2017-08-26T00:30:28.845Z,0
2017-08-26T00:31:30.461Z,0
2017-08-26T00:32:32.080Z,0
2017-08-26T00:33:33.707Z,0
2017-08-26T00:34:35.326Z,0
2017-08-26T00:35:36.945Z,0
2017-08-26T00:36:38.560Z,0
2017-08-26T00:37:40.183Z,0
2017-08-26T00:38:41.801Z,0
2017-08-26T00:39:43.418Z,0
2017-08-26T00:40:45.036Z,0
2017-08-26T00:41:46.666Z,0
2017-08-26T00:42:48.292Z,0
2017-08-26T00:43:49.905Z,0
2017-08-26T00:44:51.521Z,0
2017-08-26T00:45:53.142Z,0
2017-08-26T00:46:54.768Z,0
2017-08-26T00:47:56.382Z,0
2017-08-26T00:48:58.003Z,0
2017-08-26T00:49:59.623Z,0
2017-08-26T00:51:01.255Z,0
2017-08-26T00:52:02.867Z,0
2017-08-26T00:53:04.482Z,0
2017-08-26T00:54:06.110Z,0
2017-08-26T00:55:07.736Z,0
2017-08-26T00:56:09.354Z,0
2017-08-26T00:57:10.972Z,0
2017-08-26T00:58:12.595Z,0
2017-08-26T00:59:14.220Z,0
2017-08-26T01:00:15.834Z,0
2017-08-26T01:01:17.452Z,0
2017-08-26T01:02:19.079Z,0
2017-08-26T01:03:20.701Z,0
2017-08-26T01:04:22.317Z,0
2017-08-26T01:05:23.930Z,0
2017-08-26T01:06:25.575Z,0
2017-08-26T01:07:27.186Z,0
2017-08-26T01:08:28.799Z,0
2017-08-26T01:09:30.422Z,0
2017-08-26T01:10:32.042Z,0
2017-08-26T01:11:33.653Z,0
2017-08-26T01:12:35.280Z,0
2017-08-26T01:13:36.900Z,0
2017-08-26T01:14:38.515Z,0
2017-08-26T01:15:40.148Z,0
2017-08-26T01:16:41.771Z,0
2017-08-26T01:17:43.388Z,0
2017-08-26T01:18:45.003Z,0
2017-08-26T01:19:46.621Z,0
2017-08-26T01:20:48.242Z,0
2017-08-26T01:21:49.868Z,0
2017-08-26T01:22:51.482Z,0
2017-08-26T01:23:53.105Z,0
2017-08-26T01:24:54.733Z,0
2017-08-26T01:25:56.344Z,0
2017-08-26T01:26:57.961Z,0
2017-08-26T01:27:59.581Z,0
2017-08-26T01:29:01.203Z,0
2017-08-26T01:30:02.829Z,0
2017-08-26T01:31:04.446Z,0
2017-08-26T01:32:06.067Z,0
2017-08-26T01:33:07.693Z,0
2017-08-26T01:34:09.313Z,0
2017-08-26T01:35:10.935Z,0
2017-08-26T01:36:12.551Z,0
2017-08-26T01:37:14.181Z,0
2017-08-26T01:38:15.799Z,0
2017-08-26T01:39:17.416Z,0
2017-08-26T01:40:19.045Z,0
2017-08-26T01:41:20.661Z,0
2017-08-26T01:42:22.285Z,0
2017-08-26T01:43:23.901Z,0
2017-08-26T01:44:25.518Z,0
2017-08-26T01:45:27.136Z,0
2017-08-26T01:46:28.765Z,0
2017-08-26T01:47:30.385Z,0
2017-08-26T01:48:31.995Z,0
2017-08-26T01:49:33.612Z,0
2017-08-26T01:50:35.227Z,0
2017-08-26T01:51:36.857Z,0
2017-08-26T01:52:38.470Z,0
2017-08-26T01:53:40.089Z,0
2017-08-26T01:54:41.708Z,0
2017-08-26T01:55:43.333Z,0
2017-08-26T01:56:44.948Z,0
2017-08-26T01:57:46.567Z,0
2017-08-26T01:58:48.175Z,0
2017-08-26T01:59:49.794Z,0
2017-08-26T02:00:51.411Z,0
2017-08-26T02:01:53.021Z,0
2017-08-26T02:02:54.635Z,0
2017-08-26T02:03:56.255Z,0
2017-08-26T02:04:57.871Z,0
2017-08-26T02:05:59.485Z,0
2017-08-26T02:07:01.097Z,0
2017-08-26T02:08:02.714Z,0
2017-08-26T02:09:04.331Z,0
2017-08-26T02:10:05.941Z,0
2017-08-26T02:11:07.552Z,0
2017-08-26T02:12:09.171Z,0
2017-08-26T02:13:10.783Z,0
2017-08-26T02:14:12.402Z,0
2017-08-26T02:15:14.020Z,0
2017-08-26T02:16:15.635Z,0
2017-08-26T02:17:17.241Z,0
2017-08-26T02:18:18.854Z,0
2017-08-26T02:19:20.470Z,0
2017-08-26T02:20:22.092Z,0
2017-08-26T02:21:23.697Z,0
2017-08-26T02:22:25.311Z,0
2017-08-26T02:23:26.928Z,0
2017-08-26T02:24:28.542Z,0
2017-08-26T02:25:30.153Z,0
2017-08-26T02:26:31.776Z,0
2017-08-26T02:27:33.383Z,0
2017-08-26T02:28:35.001Z,0
2017-08-26T02:29:36.610Z,0
2017-08-26T02:30:38.222Z,0
2017-08-26T02:31:39.837Z,0
2017-08-26T02:32:41.451Z,0
2017-08-26T02:33:43.073Z,0
2017-08-26T02:34:44.674Z,0
2017-08-26T02:35:46.293Z,0
2017-08-26T02:36:47.912Z,0
2017-08-26T02:37:49.521Z,0
2017-08-26T02:38:51.130Z,0
2017-08-26T02:39:52.747Z,0
2017-08-26T02:40:54.363Z,0
2017-08-26T02:41:55.979Z,0
2017-08-26T02:42:57.597Z,0
2017-08-26T02:43:59.219Z,0
2017-08-26T02:45:00.821Z,0
2017-08-26T02:46:02.441Z,0
2017-08-26T02:47:04.056Z,0
2017-08-26T02:48:05.668Z,0
2017-08-26T02:49:07.280Z,0
2017-08-26T02:50:08.895Z,0
2017-08-26T02:51:10.526Z,0
2017-08-26T02:52:12.134Z,0
2017-08-26T02:53:13.737Z,0
2017-08-26T02:54:15.353Z,0
2017-08-26T02:55:16.969Z,0
2017-08-26T02:56:18.585Z,0
2017-08-26T02:57:20.200Z,0
2017-08-26T02:58:21.816Z,0
2017-08-26T02:59:23.426Z,0
2017-08-26T03:00:25.036Z,0
2017-08-26T03:01:26.654Z,0
2017-08-26T03:02:28.265Z,0
2017-08-26T03:03:29.881Z,0
2017-08-26T03:04:31.500Z,0
2017-08-26T03:05:33.110Z,0
2017-08-26T03:06:34.730Z,0
2017-08-26T03:07:36.342Z,0
2017-08-26T03:08:37.954Z,0
2017-08-26T03:09:39.574Z,0
2017-08-26T03:10:41.188Z,0
2017-08-26T03:11:42.805Z,0
2017-08-26T03:12:44.423Z,0
2017-08-26T03:13:46.030Z,0
2017-08-26T03:14:47.647Z,0
2017-08-26T03:15:49.258Z,0
2017-08-26T03:16:50.869Z,0
2017-08-26T03:17:52.488Z,0
2017-08-26T03:18:54.104Z,0
2017-08-26T03:19:55.739Z,0
2017-08-26T03:20:57.331Z,0
2017-08-26T03:21:58.940Z,0
2017-08-26T03:23:00.578Z,0
2017-08-26T03:24:02.172Z,0
2017-08-26T03:25:03.777Z,0
2017-08-26T03:26:05.397Z,0
2017-08-26T03:27:07.014Z,0
2017-08-26T03:28:08.628Z,0
2017-08-26T03:29:10.237Z,0
2017-08-26T03:30:11.865Z,0
2017-08-26T03:31:13.466Z,0
2017-08-26T03:32:15.082Z,0
2017-08-26T03:33:16.698Z,0
2017-08-26T03:34:18.322Z,0
2017-08-26T03:35:19.932Z,0
2017-08-26T03:36:21.542Z,0
2017-08-26T03:37:23.153Z,0
2017-08-26T03:38:24.768Z,0
2017-08-26T03:39:26.383Z,0
2017-08-26T03:40:28.000Z,0
2017-08-26T03:41:29.617Z,0
2017-08-26T03:42:31.228Z,0
2017-08-26T03:43:32.840Z,0
2017-08-26T03:44:34.452Z,0
2017-08-26T03:45:36.071Z,0
2017-08-26T03:46:37.686Z,0
2017-08-26T03:47:39.303Z,0
2017-08-26T03:48:40.917Z,0
2017-08-26T03:49:42.534Z,0
2017-08-26T03:50:44.147Z,0
2017-08-26T03:51:45.764Z,0
2017-08-26T03:52:47.377Z,0
2017-08-26T03:53:48.994Z,0
2017-08-26T03:54:50.605Z,0
2017-08-26T03:55:52.221Z,0
2017-08-26T03:56:53.837Z,0
2017-08-26T03:57:55.454Z,0
2017-08-26T03:58:57.064Z,0
2017-08-26T03:59:58.677Z,0
2017-08-26T04:01:00.297Z,0
2017-08-26T04:02:01.914Z,4
2017-08-26T04:03:03.527Z,0
2017-08-26T04:04:05.143Z,4
2017-08-26T04:05:06.751Z,4
2017-08-26T04:06:08.363Z,4
2017-08-26T04:07:09.980Z,0
2017-08-26T04:08:11.591Z,4
2017-08-26T04:09:13.210Z,4
2017-08-26T04:10:14.834Z,4
2017-08-26T04:11:16.440Z,4
2017-08-26T04:12:18.054Z,4
2017-08-26T04:13:19.673Z,4
2017-08-26T04:14:21.287Z,8
2017-08-26T04:15:22.902Z,8
2017-08-26T04:16:24.513Z,12
2017-08-26T04:17:26.136Z,12
2017-08-26T04:18:27.752Z,16
2017-08-26T04:19:29.361Z,20
2017-08-26T04:20:30.975Z,20
2017-08-26T04:21:32.595Z,32
2017-08-26T04:22:34.211Z,36
2017-08-26T04:23:35.822Z,36
2017-08-26T04:24:37.443Z,40
2017-08-26T04:25:39.054Z,44
2017-08-26T04:26:40.670Z,48
2017-08-26T04:27:42.291Z,48
2017-08-26T04:28:43.908Z,48
2017-08-26T04:29:45.518Z,52
2017-08-26T04:30:47.132Z,56
2017-08-26T04:31:48.753Z,60
2017-08-26T04:32:50.370Z,68
2017-08-26T04:33:51.979Z,80
2017-08-26T04:34:53.595Z,88
2017-08-26T04:35:55.210Z,96
2017-08-26T04:36:56.830Z,100
2017-08-26T04:37:58.447Z,108
2017-08-26T04:39:00.064Z,116
2017-08-26T04:40:01.688Z,132
2017-08-26T04:41:03.299Z,144
2017-08-26T04:42:04.912Z,156
2017-08-26T04:43:06.529Z,164
2017-08-26T04:44:08.153Z,168
2017-08-26T04:45:09.773Z,172
2017-08-26T04:46:11.394Z,184
2017-08-26T04:47:13.006Z,192
2017-08-26T04:48:14.626Z,204
2017-08-26T04:49:16.247Z,208
2017-08-26T04:50:17.859Z,212
2017-08-26T04:51:19.474Z,232
2017-08-26T04:52:21.097Z,260
2017-08-26T04:53:22.712Z,300
2017-08-26T04:54:24.327Z,332
2017-08-26T04:55:25.946Z,360
2017-08-26T04:56:27.564Z,364
2017-08-26T04:57:29.180Z,360
2017-08-26T04:58:30.798Z,360
2017-08-26T04:59:32.419Z,376
2017-08-26T05:00:34.035Z,404
2017-08-26T05:01:35.652Z,432
2017-08-26T05:02:37.264Z,456
2017-08-26T05:03:38.880Z,444
2017-08-26T05:04:40.502Z,464
2017-08-26T05:05:42.124Z,480
2017-08-26T05:06:43.741Z,500
2017-08-26T05:07:45.356Z,532
2017-08-26T05:08:46.977Z,568
2017-08-26T05:09:48.591Z,600
2017-08-26T05:10:50.212Z,616
2017-08-26T05:11:51.836Z,628
2017-08-26T05:12:53.448Z,644
2017-08-26T05:13:55.069Z,656
2017-08-26T05:14:56.685Z,672
2017-08-26T05:15:58.314Z,684
2017-08-26T05:16:59.930Z,692
2017-08-26T05:18:01.545Z,688
2017-08-26T05:19:03.166Z,680
2017-08-26T05:20:04.784Z,664
2017-08-26T05:21:06.398Z,672
2017-08-26T05:22:08.016Z,704
2017-08-26T05:23:09.635Z,760
2017-08-26T05:24:11.254Z,816
2017-08-26T05:25:12.866Z,860
2017-08-26T05:26:14.481Z,888
2017-08-26T05:27:16.103Z,892
2017-08-26T05:28:17.806Z,880
2017-08-26T05:29:19.421Z,852
2017-08-26T05:30:21.043Z,824
2017-08-26T05:31:22.656Z,808
2017-08-26T05:32:24.272Z,564
2017-08-26T05:33:25.896Z,812
2017-08-26T05:34:27.508Z,800
2017-08-26T05:35:29.131Z,780
2017-08-26T05:36:30.752Z,756
2017-08-26T05:37:32.365Z,740
2017-08-26T05:38:33.981Z,736
2017-08-26T05:39:35.600Z,744
2017-08-26T05:40:37.218Z,768
2017-08-26T05:41:38.832Z,804
2017-08-26T05:42:40.449Z,848
2017-08-26T05:43:42.067Z,876
2017-08-26T05:44:43.682Z,880
2017-08-26T05:45:45.306Z,872
2017-08-26T05:46:46.924Z,872
2017-08-26T05:47:48.546Z,876
2017-08-26T05:48:50.166Z,848
2017-08-26T05:49:51.778Z,860
2017-08-26T05:50:53.401Z,876
2017-08-26T05:51:55.066Z,956
2017-08-26T05:52:56.681Z,1076
2017-08-26T05:53:58.310Z,1196
2017-08-26T05:55:00.519Z,1348
2017-08-26T05:56:02.155Z,1544
2017-08-26T05:57:03.784Z,1740
2017-08-26T05:58:16.724Z,1968
2017-08-26T05:59:23.718Z,2244
2017-08-26T06:00:28.788Z,2512
2017-08-26T06:01:32.068Z,2792
2017-08-26T06:02:42.198Z,3056
2017-08-26T06:03:43.887Z,3404
2017-08-26T06:04:45.872Z,3724
2017-08-26T06:05:47.882Z,4020
2017-08-26T06:06:49.854Z,4228
2017-08-26T06:07:51.903Z,4384
2017-08-26T06:08:53.842Z,4512
2017-08-26T06:09:55.467Z,4552
2017-08-26T06:12:22.421Z,3772
2017-08-26T06:13:24.038Z,4692
2017-08-26T06:15:16.616Z,5920
2017-08-26T06:16:18.243Z,1904
2017-08-26T06:18:09.941Z,4816
2017-08-26T06:19:11.564Z,5320
2017-08-26T06:21:03.302Z,6276
2017-08-26T06:22:04.923Z,6536
2017-08-26T06:23:56.623Z,6148
2017-08-26T06:24:58.240Z,6208
2017-08-26T06:26:49.972Z,7220
2017-08-26T06:27:51.594Z,7228
2017-08-26T06:29:44.152Z,5628
2017-08-26T06:30:45.777Z,4844
2017-08-26T06:32:37.494Z,4844
2017-08-26T06:33:39.112Z,5124
2017-08-26T06:35:30.815Z,6332
2017-08-26T06:36:32.431Z,6692
2017-08-26T06:38:24.161Z,5136
2017-08-26T06:39:25.779Z,4744
2017-08-26T06:41:17.487Z,5100
2017-08-26T06:42:19.112Z,5224
2017-08-26T06:44:10.842Z,5364
2017-08-26T06:45:12.485Z,5424
2017-08-26T06:47:04.185Z,5872
2017-08-26T06:48:05.802Z,6468
2017-08-26T06:49:57.527Z,8160
2017-08-26T06:50:59.145Z,11876
2017-08-26T06:52:50.850Z,11596
2017-08-26T06:53:52.470Z,14592
2017-08-26T06:55:44.202Z,17056
2017-08-26T06:56:45.820Z,16928
2017-08-26T06:58:37.528Z,16800
2017-08-26T06:59:39.147Z,16352
2017-08-26T07:01:30.882Z,20128
2017-08-26T07:02:32.499Z,4324
2017-08-26T07:04:24.203Z,24320
2017-08-26T07:05:25.835Z,24800
2017-08-26T07:07:17.561Z,27168
2017-08-26T07:12:29.322Z,26432
2017-08-26T07:13:30.954Z,25664
2017-08-26T07:14:32.582Z,25600
2017-08-26T07:15:34.209Z,26944
2017-08-26T07:16:35.835Z,27584
2017-08-26T07:17:37.465Z,27392
2017-08-26T07:18:39.095Z,28064
2017-08-26T07:19:40.719Z,29120
2017-08-26T07:20:42.370Z,25824
2017-08-26T07:21:44.001Z,25440
2017-08-26T07:22:45.629Z,19552
2017-08-26T07:23:47.257Z,25888
2017-08-26T07:24:48.886Z,28224
2017-08-26T07:25:50.513Z,24384
2017-08-26T07:26:52.142Z,32864
2017-08-26T07:27:53.774Z,33184
2017-08-26T07:28:55.401Z,30976
2017-08-26T07:29:57.028Z,29440
2017-08-26T07:30:58.655Z,29280
2017-08-26T07:32:00.289Z,27840
2017-08-26T07:33:01.921Z,27488
2017-08-26T07:34:03.559Z,24544
2017-08-26T07:35:05.191Z,18464
2017-08-26T07:36:06.814Z,14484
2017-08-26T07:37:08.440Z,13304
2017-08-26T07:38:10.075Z,13276
2017-08-26T07:39:11.706Z,13180
2017-08-26T07:40:13.334Z,12892
2017-08-26T07:41:14.965Z,12496
2017-08-26T07:42:16.597Z,12984
2017-08-26T07:43:18.226Z,14020
2017-08-26T07:44:19.851Z,14816
2017-08-26T07:45:21.481Z,14520
2017-08-26T07:46:23.113Z,13692
2017-08-26T07:47:24.742Z,13048
2017-08-26T07:48:26.368Z,12656
2017-08-26T07:49:27.994Z,12544
2017-08-26T07:50:29.620Z,12704
2017-08-26T07:51:31.253Z,12880
2017-08-26T07:52:32.882Z,12916
2017-08-26T07:53:34.507Z,13056
2017-08-26T07:54:36.137Z,13444
2017-08-26T07:55:37.764Z,14196
2017-08-26T07:56:39.396Z,15584
2017-08-26T07:57:41.024Z,16544
2017-08-26T07:58:42.648Z,17280
2017-08-26T07:59:44.276Z,16832
2017-08-26T08:00:45.909Z,15768
2017-08-26T08:01:47.535Z,15308
2017-08-26T08:02:49.167Z,15708
2017-08-26T08:03:50.791Z,16464
2017-08-26T08:04:52.416Z,18016
2017-08-26T08:05:54.046Z,20128
2017-08-26T08:06:55.675Z,28544
2017-08-26T08:07:57.302Z,31552
2017-08-26T08:08:58.929Z,21408
2017-08-26T08:10:00.561Z,27552
2017-08-26T08:11:02.191Z,28992
2017-08-26T08:12:03.818Z,36288
2017-08-26T08:13:05.443Z,35936
2017-08-26T08:14:07.070Z,36704
2017-08-26T08:15:08.695Z,34944
2017-08-26T08:16:10.328Z,35520
2017-08-26T08:17:11.962Z,36544
2017-08-26T08:18:13.594Z,38208
2017-08-26T08:19:15.223Z,38336
2017-08-26T08:20:16.848Z,28288
2017-08-26T08:21:18.487Z,21952
2017-08-26T08:22:20.114Z,20768
2017-08-26T08:23:21.746Z,20448
2017-08-26T08:24:23.376Z,19584
2017-08-26T08:25:25.006Z,19520
2017-08-26T08:26:26.638Z,19904
2017-08-26T08:27:28.273Z,18880
2017-08-26T08:28:29.905Z,18144
2017-08-26T08:29:31.534Z,17504
2017-08-26T08:30:33.176Z,15792
2017-08-26T08:31:34.803Z,14300
2017-08-26T08:32:36.432Z,13684
2017-08-26T08:33:38.056Z,12916
2017-08-26T08:34:39.685Z,12128
2017-08-26T08:35:41.312Z,11708
2017-08-26T08:36:42.948Z,11584
2017-08-26T08:37:44.579Z,11720
2017-08-26T08:38:46.208Z,11884
2017-08-26T08:39:47.835Z,11924
2017-08-26T08:40:49.465Z,12160
2017-08-26T08:41:51.095Z,12792
2017-08-26T08:42:52.720Z,13628
2017-08-26T08:43:54.346Z,14596
2017-08-26T08:44:55.976Z,16268
2017-08-26T08:45:57.612Z,17216
2017-08-26T08:46:59.241Z,20160
2017-08-26T08:48:00.869Z,20480
2017-08-26T08:49:02.507Z,20352
2017-08-26T08:50:04.137Z,21312
2017-08-26T08:51:05.761Z,23680
2017-08-26T08:52:07.395Z,25504
2017-08-26T08:53:09.025Z,32096
2017-08-26T08:54:10.653Z,22240
2017-08-26T08:55:12.278Z,19552
2017-08-26T08:56:13.912Z,20256
2017-08-26T08:57:15.537Z,23360
2017-08-26T08:58:17.167Z,20224
2017-08-26T08:59:18.800Z,19712
2017-08-26T09:00:20.436Z,16960
2017-08-26T09:01:22.061Z,15336
2017-08-26T09:02:23.686Z,16224
2017-08-26T09:03:25.323Z,18400
2017-08-26T09:04:26.952Z,23872
2017-08-26T09:05:28.580Z,19136
2017-08-26T09:06:30.211Z,22848
2017-08-26T09:07:31.844Z,26080
2017-08-26T09:08:33.469Z,16928
2017-08-26T09:09:35.102Z,13812
2017-08-26T09:10:36.732Z,13760
2017-08-26T09:11:38.358Z,14152
2017-08-26T09:12:39.991Z,16736
2017-08-26T09:13:41.623Z,15380
2017-08-26T09:14:43.246Z,13676
2017-08-26T09:15:44.883Z,9716
2017-08-26T09:16:46.505Z,8928
2017-08-26T09:17:48.138Z,9604
2017-08-26T09:18:49.756Z,10144
2017-08-26T09:19:51.387Z,10996
2017-08-26T09:20:53.012Z,11548
2017-08-26T09:21:54.650Z,12316
2017-08-26T09:22:56.278Z,12236
2017-08-26T09:23:57.902Z,13748
2017-08-26T09:24:59.548Z,11652
2017-08-26T09:26:01.157Z,10612
2017-08-26T09:27:02.784Z,10924
2017-08-26T09:28:04.417Z,10064
2017-08-26T09:29:06.040Z,8656
2017-08-26T09:30:07.663Z,8128
2017-08-26T09:31:09.293Z,10064
2017-08-26T09:32:10.924Z,11464
2017-08-26T09:33:12.547Z,10380
2017-08-26T09:34:14.180Z,8960
2017-08-26T09:35:15.806Z,7692
2017-08-26T09:36:17.430Z,6516
2017-08-26T09:37:19.060Z,6328
2017-08-26T09:38:20.685Z,5812
2017-08-26T09:39:22.306Z,5944
2017-08-26T09:40:23.931Z,6648
2017-08-26T09:41:25.559Z,7896
2017-08-26T09:42:27.182Z,8856
2017-08-26T09:43:28.807Z,9620
2017-08-26T09:44:30.435Z,9632
2017-08-26T09:45:32.056Z,9756
2017-08-26T09:46:33.679Z,12756
2017-08-26T09:47:35.309Z,18112
2017-08-26T09:48:36.941Z,20224
2017-08-26T09:49:38.563Z,20352
2017-08-26T09:50:40.197Z,20416
2017-08-26T09:51:41.825Z,15216
2017-08-26T09:52:43.454Z,20384
2017-08-26T09:53:45.078Z,25664
2017-08-26T09:54:46.702Z,16736
2017-08-26T09:55:48.334Z,13688
2017-08-26T09:56:49.963Z,11924
2017-08-26T09:57:51.587Z,11432
2017-08-26T09:58:53.212Z,11556
2017-08-26T09:59:54.840Z,10564
2017-08-26T10:00:56.468Z,10048
2017-08-26T10:01:58.098Z,10036
2017-08-26T10:02:59.721Z,11548
2017-08-26T10:04:01.347Z,14104
2017-08-26T10:05:02.979Z,14676
2017-08-26T10:06:04.604Z,13996
2017-08-26T10:07:06.226Z,12060
2017-08-26T10:08:07.850Z,9712
2017-08-26T10:09:09.481Z,10436
2017-08-26T10:10:11.110Z,13448
2017-08-26T10:11:12.734Z,15480
2017-08-26T10:12:14.358Z,12704
2017-08-26T10:13:15.992Z,12232
2017-08-26T10:14:17.611Z,10960
2017-08-26T10:15:19.241Z,9320
2017-08-26T10:16:20.869Z,7964
2017-08-26T10:17:22.491Z,6788
2017-08-26T10:18:24.118Z,5872
2017-08-26T10:19:25.749Z,5024
2017-08-26T10:20:27.377Z,4332
2017-08-26T10:21:29.000Z,3948
2017-08-26T10:22:30.622Z,3588
2017-08-26T10:23:32.252Z,3080
2017-08-26T10:24:33.882Z,2948
2017-08-26T10:25:35.530Z,3344
2017-08-26T10:26:37.158Z,4152
2017-08-26T10:27:38.779Z,5668
2017-08-26T10:28:40.418Z,7036
2017-08-26T10:29:42.388Z,6624
2017-08-26T10:30:44.046Z,5364
2017-08-26T10:31:45.735Z,7080
2017-08-26T10:32:48.040Z,12272
2017-08-26T10:33:49.783Z,18560
2017-08-26T10:34:51.903Z,16376
2017-08-26T10:35:53.825Z,14108
2017-08-26T10:36:55.799Z,12504
2017-08-26T10:38:08.829Z,12132
2017-08-26T10:39:10.551Z,12548
2017-08-26T10:40:12.440Z,12068
2017-08-26T10:41:14.315Z,11872
2017-08-26T10:42:16.180Z,12144
2017-08-26T10:43:18.134Z,12380
2017-08-26T10:44:20.059Z,12900
2017-08-26T10:45:21.692Z,13008
2017-08-26T10:46:23.339Z,12624
2017-08-26T10:47:24.946Z,12812
2017-08-26T10:48:26.570Z,13092
2017-08-26T10:49:28.195Z,13984
2017-08-26T10:50:30.053Z,14620
2017-08-26T10:51:42.441Z,13832
2017-08-26T10:52:55.686Z,14312
2017-08-26T10:54:07.721Z,14260
2017-08-26T10:55:17.249Z,14196
2017-08-26T10:56:18.907Z,14920
2017-08-26T10:57:23.375Z,21024
2017-08-26T10:58:24.997Z,18432
2017-08-26T10:59:26.603Z,18048
2017-08-26T11:00:40.253Z,18784
2017-08-26T11:01:52.579Z,17856
2017-08-26T11:03:05.809Z,22560
2017-08-26T11:04:07.738Z,31872
2017-08-26T11:05:19.072Z,38720
2017-08-26T11:06:20.679Z,57888
2017-08-26T11:07:22.304Z,45920
2017-08-26T11:08:23.934Z,52992
2017-08-26T11:09:25.570Z,36128
2017-08-26T11:10:27.199Z,51552
2017-08-26T11:11:28.830Z,58208
2017-08-26T11:12:30.467Z,56800
2017-08-26T11:13:32.101Z,55392
2017-08-26T11:14:33.734Z,52160
2017-08-26T11:15:35.363Z,37568
2017-08-26T11:16:36.998Z,40576
2017-08-26T11:17:38.635Z,48640
2017-08-26T11:18:40.271Z,46080
2017-08-26T11:19:41.901Z,40096
2017-08-26T11:20:43.546Z,28384
2017-08-26T11:21:45.164Z,28224
2017-08-26T11:22:46.803Z,21504
2017-08-26T11:23:48.438Z,22208
2017-08-26T11:24:50.071Z,21472
2017-08-26T11:25:51.704Z,23296
2017-08-26T11:26:53.340Z,22304
2017-08-26T11:27:54.976Z,25984
2017-08-26T11:28:56.602Z,37344
2017-08-26T11:29:58.236Z,49152
2017-08-26T11:30:59.871Z,29408
2017-08-26T11:32:01.507Z,23840
2017-08-26T11:33:03.442Z,24064
2017-08-26T11:34:05.073Z,34752
2017-08-26T11:35:06.711Z,33440
2017-08-26T11:36:08.335Z,40320
2017-08-26T11:37:09.967Z,29056
2017-08-26T11:38:11.603Z,30368
2017-08-26T11:39:13.236Z,25856
2017-08-26T11:40:14.872Z,24704
2017-08-26T11:41:16.500Z,24992
2017-08-26T11:42:18.128Z,24128
2017-08-26T11:43:19.766Z,40288
2017-08-26T11:44:21.400Z,43040
2017-08-26T11:45:23.030Z,40448
2017-08-26T11:46:24.661Z,41184
2017-08-26T11:47:26.293Z,37344
2017-08-26T11:48:27.930Z,28800
2017-08-26T11:49:29.560Z,24128
2017-08-26T11:50:31.188Z,22912
2017-08-26T11:51:32.832Z,19104
2017-08-26T11:52:34.459Z,17312
2017-08-26T11:53:36.093Z,21664
2017-08-26T11:54:37.752Z,19552
2017-08-26T11:55:39.354Z,20128
2017-08-26T11:56:40.982Z,20288
2017-08-26T11:57:42.618Z,20288
2017-08-26T11:58:44.255Z,21088
2017-08-26T11:59:45.888Z,21664
2017-08-26T12:00:47.515Z,22144
2017-08-26T12:01:49.151Z,18048
2017-08-26T12:02:50.783Z,15524
2017-08-26T12:03:52.413Z,13192
2017-08-26T12:04:54.040Z,12248
2017-08-26T12:05:55.667Z,12752
2017-08-26T12:06:57.296Z,12940
2017-08-26T12:07:58.927Z,13348
2017-08-26T12:09:00.563Z,13444
2017-08-26T12:10:02.195Z,12756
2017-08-26T12:11:03.826Z,11352
2017-08-26T12:12:05.452Z,10028
2017-08-26T12:13:07.078Z,9220
2017-08-26T12:14:08.726Z,9948
2017-08-26T12:15:10.345Z,12156
2017-08-26T12:16:11.971Z,13892
2017-08-26T12:17:13.608Z,13784
2017-08-26T12:18:15.232Z,13460
2017-08-26T12:19:16.863Z,13388
2017-08-26T12:20:18.493Z,12848
2017-08-26T12:21:20.121Z,11216
2017-08-26T12:22:21.746Z,9292
2017-08-26T12:23:23.374Z,7184
2017-08-26T12:24:25.001Z,5816
2017-08-26T12:25:26.629Z,5212
2017-08-26T12:26:28.270Z,5260
2017-08-26T12:27:29.897Z,6300
2017-08-26T12:28:31.523Z,7604
2017-08-26T12:29:33.158Z,8580
2017-08-26T12:30:34.789Z,9304
2017-08-26T12:31:36.416Z,7076
2017-08-26T12:32:38.046Z,7072
2017-08-26T12:33:39.667Z,7024
2017-08-26T12:34:41.297Z,8112
2017-08-26T12:35:42.927Z,11524
2017-08-26T12:36:44.556Z,12236
2017-08-26T12:37:46.182Z,12520
2017-08-26T12:38:47.825Z,11928
2017-08-26T12:39:49.438Z,10924
2017-08-26T12:40:51.066Z,10840
2017-08-26T12:41:52.690Z,11596
2017-08-26T12:42:54.315Z,11320
2017-08-26T12:43:55.950Z,11048
2017-08-26T12:44:57.584Z,10464
2017-08-26T12:45:59.205Z,9672
2017-08-26T12:47:00.829Z,9140
2017-08-26T12:48:02.473Z,8796
2017-08-26T12:49:04.083Z,8640
2017-08-26T12:50:05.714Z,9180
2017-08-26T12:51:07.337Z,9948
2017-08-26T12:52:08.963Z,11560
2017-08-26T12:53:10.589Z,15596
2017-08-26T12:54:12.219Z,18432
2017-08-26T12:55:13.846Z,20096
2017-08-26T12:56:15.473Z,20256
2017-08-26T12:57:17.100Z,19136
2017-08-26T12:58:18.732Z,17984
2017-08-26T12:59:20.369Z,18208
2017-08-26T13:00:21.990Z,20320
2017-08-26T13:01:23.617Z,19712
2017-08-26T13:02:25.244Z,19328
2017-08-26T13:03:26.878Z,17888
2017-08-26T13:04:28.501Z,17408
2017-08-26T13:05:30.134Z,16484
2017-08-26T13:06:31.768Z,14664
2017-08-26T13:07:33.389Z,12960
2017-08-26T13:08:35.013Z,12116
2017-08-26T13:09:36.640Z,11660
2017-08-26T13:10:38.273Z,12172
2017-08-26T13:11:39.903Z,13172
2017-08-26T13:12:41.535Z,14000
2017-08-26T13:13:43.170Z,14556
2017-08-26T13:14:44.794Z,15156
2017-08-26T13:15:46.418Z,16088
2017-08-26T13:16:48.047Z,18176
2017-08-26T13:17:49.678Z,18464
2017-08-26T13:18:51.309Z,17792
2017-08-26T13:19:52.935Z,17408
2017-08-26T13:20:54.567Z,16880
2017-08-26T13:21:56.214Z,15976
2017-08-26T13:22:57.826Z,14676
2017-08-26T13:23:59.452Z,14516
2017-08-26T13:25:01.080Z,14656
2017-08-26T13:26:02.715Z,14708
2017-08-26T13:27:04.366Z,14576
2017-08-26T13:28:05.975Z,14896
2017-08-26T13:29:07.607Z,14372
2017-08-26T13:30:09.232Z,13812
2017-08-26T13:31:10.860Z,12972
2017-08-26T13:32:12.485Z,11892
2017-08-26T13:33:14.119Z,12216
2017-08-26T13:34:15.743Z,14056
2017-08-26T13:35:17.380Z,14784
2017-08-26T13:36:19.007Z,14924
2017-08-26T13:37:20.636Z,14496
2017-08-26T13:38:22.260Z,14104
2017-08-26T13:39:23.889Z,13600
2017-08-26T13:40:25.525Z,12920
2017-08-26T13:41:27.149Z,13064
2017-08-26T13:42:28.775Z,13252
2017-08-26T13:43:30.401Z,13316
2017-08-26T13:44:32.033Z,13060
2017-08-26T13:45:33.664Z,12652
2017-08-26T13:46:35.287Z,12544
2017-08-26T13:47:36.917Z,12160
2017-08-26T13:48:38.544Z,11588
2017-08-26T13:49:40.180Z,11952
2017-08-26T13:50:41.803Z,11824
2017-08-26T13:51:43.425Z,11388
2017-08-26T13:52:45.060Z,11856
2017-08-26T13:53:46.690Z,13016
2017-08-26T13:54:48.316Z,13124
2017-08-26T13:55:49.944Z,12524
2017-08-26T13:56:51.575Z,12144
2017-08-26T13:57:53.205Z,11940
2017-08-26T13:58:54.830Z,11740
2017-08-26T13:59:56.460Z,10824
2017-08-26T14:00:58.089Z,9860
2017-08-26T14:01:59.719Z,9764
2017-08-26T14:03:01.352Z,9060
2017-08-26T14:04:02.976Z,9384
2017-08-26T14:05:04.600Z,9684
2017-08-26T14:06:06.227Z,9888
2017-08-26T14:07:07.855Z,9812
2017-08-26T14:08:09.483Z,9476
2017-08-26T14:09:11.111Z,9520
2017-08-26T14:10:12.732Z,9644
2017-08-26T14:11:14.363Z,9984
2017-08-26T14:12:16.007Z,10572
2017-08-26T14:13:17.631Z,10896
2017-08-26T14:14:19.257Z,11212
2017-08-26T14:15:20.887Z,11184
2017-08-26T14:16:22.518Z,11200
2017-08-26T14:17:24.148Z,10776
2017-08-26T14:18:25.775Z,10064
2017-08-26T14:19:27.404Z,9668
2017-08-26T14:20:29.024Z,9300
2017-08-26T14:21:30.649Z,9184